createdAt,value
2023-05-10T00:00:21.438Z,2.00
2023-05-10T00:01:23.080Z,1.75
2023-05-10T00:02:27.936Z,1.80
2023-05-10T00:03:29.650Z,1.80
2023-05-10T00:04:31.268Z,1.80
2023-05-10T00:05:33.440Z,2.10
2023-05-10T00:06:35.479Z,2.00
2023-05-10T00:07:37.091Z,2.00
2023-05-10T00:08:38.808Z,1.80
2023-05-10T00:09:41.040Z,2.03
2023-05-10T00:10:42.630Z,1.88
2023-05-10T00:11:44.226Z,1.55
2023-05-10T00:12:45.787Z,1.80
2023-05-10T00:13:47.380Z,1.75
2023-05-10T00:14:48.968Z,1.63
2023-05-10T00:15:51.549Z,1.75
2023-05-10T00:16:53.297Z,1.90
2023-05-10T00:17:55.099Z,1.65
2023-05-10T00:18:56.708Z,1.90
2023-05-10T00:19:58.553Z,1.80
2023-05-10T00:21:00.409Z,1.60
2023-05-10T00:22:02.568Z,1.75
2023-05-10T00:23:04.200Z,1.52
2023-05-10T00:24:06.018Z,1.50
2023-05-10T00:25:08.579Z,1.70
2023-05-10T00:26:10.179Z,1.50
2023-05-10T00:27:13.013Z,1.65
2023-05-10T00:28:14.817Z,1.70
2023-05-10T00:29:16.432Z,1.70
2023-05-10T00:30:18.374Z,1.70
2023-05-10T00:31:20.208Z,1.55
2023-05-10T00:32:21.984Z,1.50
2023-05-10T00:33:23.621Z,1.60
2023-05-10T00:34:25.718Z,1.40
2023-05-10T00:35:27.705Z,1.23
2023-05-10T00:36:29.442Z,1.50
2023-05-10T00:37:31.088Z,1.30
2023-05-10T00:38:33.011Z,1.48
2023-05-10T00:39:34.614Z,1.35
2023-05-10T00:40:37.999Z,1.23
2023-05-10T00:41:43.237Z,1.42
2023-05-10T00:42:44.867Z,1.58
2023-05-10T00:43:46.524Z,1.30
2023-05-10T00:44:48.166Z,1.50
2023-05-10T00:45:49.793Z,1.40
2023-05-10T00:46:51.949Z,1.40
2023-05-10T00:47:56.242Z,1.25
2023-05-10T00:48:58.221Z,1.52
2023-05-10T00:50:01.598Z,1.05
2023-05-10T00:51:03.451Z,1.38
2023-05-10T00:52:05.121Z,1.38
2023-05-10T00:53:06.925Z,1.40
2023-05-10T00:54:08.511Z,1.35
2023-05-10T00:55:11.168Z,1.40
2023-05-10T00:56:13.385Z,1.45
2023-05-10T00:57:15.065Z,1.50
2023-05-10T00:58:16.631Z,1.20
2023-05-10T00:59:18.752Z,1.20
2023-05-10T01:00:20.713Z,1.30
2023-05-10T01:01:22.428Z,1.30
2023-05-10T01:02:24.168Z,1.23
2023-05-10T01:03:26.565Z,1.30
2023-05-10T01:05:29.806Z,1.38
2023-05-10T01:06:33.270Z,1.40
2023-05-10T01:07:34.911Z,1.50
2023-05-10T01:08:37.270Z,1.40
2023-05-10T01:09:38.880Z,1.50
2023-05-10T01:10:40.541Z,1.38
2023-05-10T01:11:43.313Z,1.30
2023-05-10T01:12:46.506Z,1.30
2023-05-10T01:13:53.727Z,1.40
2023-05-10T01:14:55.452Z,1.40
2023-05-10T01:15:57.461Z,1.38
2023-05-10T01:16:59.343Z,1.40
2023-05-10T01:18:01.447Z,1.23
2023-05-10T01:19:07.808Z,1.25
2023-05-10T01:20:10.657Z,1.30
2023-05-10T01:21:34.550Z,1.50
2023-05-10T01:22:44.184Z,1.40
2023-05-10T01:24:20.233Z,1.33
2023-05-10T01:25:34.135Z,1.08
2023-05-10T01:26:38.752Z,1.10
2023-05-10T01:27:56.604Z,1.20
2023-05-10T01:29:17.300Z,1.52
2023-05-10T01:32:09.528Z,1.27
2023-05-10T01:33:19.278Z,1.27
2023-05-10T01:34:26.564Z,1.20
2023-05-10T01:35:40.240Z,1.05
2023-05-10T01:36:47.667Z,1.23
2023-05-10T01:38:18.821Z,1.13
2023-05-10T01:39:42.269Z,1.17
2023-05-10T01:40:56.588Z,1.20
2023-05-10T01:42:15.497Z,1.30
2023-05-10T01:43:23.094Z,1.10
2023-05-10T01:44:30.181Z,1.40
2023-05-10T01:45:38.897Z,1.20
2023-05-10T01:46:41.380Z,1.10
2023-05-10T01:47:44.975Z,1.20
2023-05-10T01:48:55.584Z,1.10
2023-05-10T01:49:58.414Z,1.10
2023-05-10T01:51:00.004Z,1.17
2023-05-10T01:52:15.259Z,0.98
2023-05-10T01:53:19.861Z,1.10
2023-05-10T01:54:22.858Z,1.10
2023-05-10T01:55:27.385Z,1.25
2023-05-10T01:56:31.997Z,1.00
2023-05-10T01:57:35.568Z,1.10
2023-05-10T01:58:37.503Z,1.15
2023-05-10T01:59:41.830Z,1.20
2023-05-10T02:00:46.599Z,1.05
2023-05-10T02:01:48.670Z,0.93
2023-05-10T02:02:50.937Z,0.95
2023-05-10T02:03:52.977Z,1.00
2023-05-10T02:04:55.336Z,1.10
2023-05-10T02:05:57.445Z,1.02
2023-05-10T02:06:59.004Z,1.00
2023-05-10T02:08:02.237Z,1.00
2023-05-10T02:09:05.219Z,0.95
2023-05-10T02:10:08.529Z,1.20
2023-05-10T02:11:12.202Z,1.17
2023-05-10T02:12:14.301Z,1.27
2023-05-10T02:13:17.154Z,1.20
2023-05-10T02:14:19.583Z,1.10
2023-05-10T02:15:24.299Z,1.40
2023-05-10T02:16:27.478Z,1.20
2023-05-10T02:17:29.882Z,1.10
2023-05-10T02:19:33.987Z,1.00
2023-05-10T02:20:35.994Z,1.00
2023-05-10T02:21:38.856Z,0.93
2023-05-10T02:22:41.614Z,1.00
2023-05-10T02:23:43.845Z,1.10
2023-05-10T02:24:46.310Z,1.20
2023-05-10T02:26:50.975Z,1.20
2023-05-10T02:27:55.698Z,0.93
2023-05-10T02:28:57.436Z,1.10
2023-05-10T02:29:59.137Z,1.13
2023-05-10T02:31:01.041Z,0.90
2023-05-10T02:32:03.466Z,1.20
2023-05-10T02:33:06.549Z,1.00
2023-05-10T02:34:09.331Z,1.00
2023-05-10T02:35:11.475Z,1.10
2023-05-10T02:36:13.938Z,1.00
2023-05-10T02:38:18.159Z,1.00
2023-05-10T02:39:22.903Z,1.00
2023-05-10T02:40:26.162Z,1.10
2023-05-10T02:41:32.247Z,1.00
2023-05-10T02:42:37.431Z,1.10
2023-05-10T02:43:40.819Z,0.93
2023-05-10T02:44:42.907Z,0.90
2023-05-10T02:45:44.918Z,1.05
2023-05-10T02:46:46.722Z,1.05
2023-05-10T02:47:49.193Z,1.00
2023-05-10T02:49:52.470Z,1.10
2023-05-10T02:50:56.166Z,1.10
2023-05-10T02:52:02.429Z,0.95
2023-05-10T02:53:12.565Z,1.00
2023-05-10T02:54:20.334Z,1.00
2023-05-10T02:55:28.156Z,1.10
2023-05-10T02:56:37.223Z,1.23
2023-05-10T02:57:42.851Z,1.00
2023-05-10T02:58:44.457Z,1.10
2023-05-10T02:59:47.049Z,1.17
2023-05-10T03:00:48.768Z,0.98
2023-05-10T03:01:50.494Z,1.10
2023-05-10T03:02:52.290Z,1.20
2023-05-10T03:03:54.409Z,0.90
2023-05-10T03:04:56.189Z,0.90
2023-05-10T03:05:58.921Z,0.95
2023-05-10T03:07:00.731Z,1.00
2023-05-10T03:08:05.135Z,1.00
2023-05-10T03:09:08.777Z,0.90
2023-05-10T03:10:12.102Z,0.90
2023-05-10T03:11:53.058Z,1.00
2023-05-10T03:13:08.831Z,0.85
2023-05-10T03:14:35.963Z,1.02
2023-05-10T03:15:56.344Z,0.65
2023-05-10T03:17:02.289Z,0.95
2023-05-10T03:18:13.186Z,1.10
2023-05-10T03:19:34.105Z,0.90
2023-05-10T03:20:49.382Z,0.90
2023-05-10T03:21:52.595Z,0.90
2023-05-10T03:23:01.094Z,0.98
2023-05-10T03:24:09.283Z,0.90
2023-05-10T03:25:13.419Z,0.85
2023-05-10T03:26:18.999Z,1.10
2023-05-10T03:27:21.416Z,0.90
2023-05-10T03:28:26.205Z,0.88
2023-05-10T03:29:27.931Z,0.88
2023-05-10T03:30:30.576Z,0.63
2023-05-10T03:31:32.616Z,1.00
2023-05-10T03:32:35.816Z,0.90
2023-05-10T03:34:44.362Z,1.17
2023-05-10T03:35:46.785Z,1.00
2023-05-10T03:36:49.280Z,1.00
2023-05-10T03:37:50.884Z,0.90
2023-05-10T03:38:52.588Z,0.75
2023-05-10T03:39:54.346Z,1.10
2023-05-10T03:40:56.710Z,0.90
2023-05-10T03:41:58.409Z,1.02
2023-05-10T03:43:00.310Z,0.70
2023-05-10T03:44:01.984Z,1.00
2023-05-10T03:45:04.263Z,0.90
2023-05-10T03:46:06.593Z,0.40
2023-05-10T03:47:09.191Z,0.57
2023-05-10T03:48:11.002Z,0.70
2023-05-10T03:49:13.069Z,0.50
2023-05-10T03:50:16.847Z,0.38
2023-05-10T03:51:18.808Z,0.57
2023-05-10T03:52:20.425Z,0.52
2023-05-10T03:53:23.761Z,0.50
2023-05-10T03:54:25.356Z,0.50
2023-05-10T03:55:27.109Z,0.40
2023-05-10T03:56:28.677Z,0.50
2023-05-10T03:57:30.478Z,0.45
2023-05-10T03:58:32.044Z,0.57
2023-05-10T03:59:33.859Z,0.70
2023-05-10T04:00:36.174Z,0.50
2023-05-10T04:01:37.982Z,0.40
2023-05-10T04:02:39.702Z,0.60
2023-05-10T04:03:41.673Z,0.50
2023-05-10T04:04:43.352Z,0.50
2023-05-10T04:05:45.035Z,0.50
2023-05-10T04:06:47.377Z,0.50
2023-05-10T04:07:50.316Z,0.50
2023-05-10T04:08:51.880Z,0.52
2023-05-10T04:09:53.547Z,0.43
2023-05-10T04:11:10.480Z,0.65
2023-05-10T04:12:12.087Z,0.50
2023-05-10T04:13:13.745Z,0.90
2023-05-10T04:14:15.385Z,0.60
2023-05-10T04:15:17.110Z,0.80
2023-05-10T04:16:18.729Z,0.73
2023-05-10T04:17:20.370Z,0.70
2023-05-10T04:18:21.956Z,0.60
2023-05-10T04:19:23.656Z,0.60
2023-05-10T04:20:25.384Z,0.35
2023-05-10T04:21:26.978Z,0.45
2023-05-10T04:22:30.041Z,0.35
2023-05-10T04:23:31.616Z,0.38
2023-05-10T04:24:33.324Z,0.22
2023-05-10T04:25:36.353Z,0.40
2023-05-10T04:26:37.970Z,0.30
2023-05-10T04:27:39.543Z,0.38
2023-05-10T04:28:41.192Z,0.40
2023-05-10T04:29:42.842Z,0.50
2023-05-10T04:30:44.462Z,0.30
2023-05-10T04:31:46.071Z,0.40
2023-05-10T04:32:47.683Z,0.50
2023-05-10T04:33:49.406Z,0.28
2023-05-10T04:34:52.252Z,0.50
2023-05-10T04:35:53.840Z,0.55
2023-05-10T04:36:55.479Z,0.75
2023-05-10T04:37:57.075Z,0.30
2023-05-10T04:38:58.927Z,0.50
2023-05-10T04:40:01.132Z,0.40
2023-05-10T04:41:07.485Z,0.50
2023-05-10T04:42:09.353Z,0.55
2023-05-10T04:43:10.941Z,0.90
2023-05-10T04:44:12.603Z,0.50
2023-05-10T04:45:15.691Z,0.70
2023-05-10T04:46:17.530Z,0.70
2023-05-10T04:47:19.269Z,0.52
2023-05-10T04:48:20.949Z,0.55
2023-05-10T04:49:22.735Z,0.70
2023-05-10T04:50:24.365Z,0.60
2023-05-10T04:51:26.110Z,0.70
2023-05-10T04:52:27.663Z,0.73
2023-05-10T04:53:29.269Z,0.75
2023-05-10T04:54:30.871Z,0.60
2023-05-10T04:55:32.493Z,0.45
2023-05-10T04:56:34.339Z,0.60
2023-05-10T04:57:35.974Z,0.75
2023-05-10T04:58:37.689Z,0.73
2023-05-10T04:59:39.238Z,0.70
2023-05-10T05:00:40.890Z,0.70
2023-05-10T05:01:42.572Z,0.57
2023-05-10T05:02:47.540Z,0.82
2023-05-10T05:03:49.262Z,0.70
2023-05-10T05:04:50.910Z,0.73
2023-05-10T05:05:52.546Z,0.80
2023-05-10T05:06:54.215Z,0.98
2023-05-10T05:07:55.783Z,1.00
2023-05-10T05:08:57.478Z,0.60
2023-05-10T05:09:59.067Z,0.70
2023-05-10T05:11:00.696Z,1.00
2023-05-10T05:12:02.564Z,0.68
2023-05-10T05:13:04.181Z,1.00
2023-05-10T05:14:05.906Z,1.15
2023-05-10T05:15:09.878Z,0.95
2023-05-10T05:16:12.474Z,0.85
2023-05-10T05:17:14.188Z,0.77
2023-05-10T05:18:15.772Z,0.95
2023-05-10T05:19:17.344Z,0.65
2023-05-10T05:20:19.991Z,0.80
2023-05-10T05:21:22.486Z,1.00
2023-05-10T05:23:31.145Z,0.90
2023-05-10T05:25:37.693Z,0.70
2023-05-10T05:26:39.495Z,0.70
2023-05-10T05:27:41.072Z,0.90
2023-05-10T05:28:42.843Z,1.17
2023-05-10T05:29:44.427Z,0.98
2023-05-10T05:30:46.483Z,0.90
2023-05-10T05:31:48.091Z,0.80
2023-05-10T05:32:49.745Z,0.82
2023-05-10T05:33:51.379Z,0.80
2023-05-10T05:34:52.970Z,1.30
2023-05-10T05:35:54.579Z,0.70
2023-05-10T05:36:56.377Z,0.90
2023-05-10T05:37:58.197Z,0.70
2023-05-10T05:38:59.784Z,0.80
2023-05-10T05:40:02.684Z,0.80
2023-05-10T05:41:04.476Z,0.80
2023-05-10T05:42:06.126Z,0.90
2023-05-10T05:43:07.692Z,0.80
2023-05-10T05:44:09.423Z,0.80
2023-05-10T05:45:14.125Z,0.93
2023-05-10T05:46:16.096Z,1.00
2023-05-10T05:47:17.738Z,0.90
2023-05-10T05:48:19.394Z,0.90
2023-05-10T05:49:20.949Z,0.82
2023-05-10T05:50:22.522Z,0.90
2023-05-10T05:51:24.177Z,0.80
2023-05-10T05:52:25.783Z,0.80
2023-05-10T05:53:27.488Z,0.95
2023-05-10T05:54:29.312Z,1.10
2023-05-10T05:55:32.511Z,1.02
2023-05-10T05:56:34.208Z,0.90
2023-05-10T05:57:35.839Z,0.98
2023-05-10T05:58:37.405Z,0.90
2023-05-10T05:59:44.848Z,0.80
2023-05-10T06:00:46.511Z,0.93
2023-05-10T06:01:48.336Z,0.82
2023-05-10T06:02:49.990Z,1.13
2023-05-10T06:03:53.306Z,1.00
2023-05-10T06:04:55.172Z,0.88
2023-05-10T06:05:56.781Z,0.90
2023-05-10T06:06:58.328Z,0.90
2023-05-10T06:08:01.052Z,0.85
2023-05-10T06:09:02.637Z,1.00
2023-05-10T06:10:04.537Z,0.95
2023-05-10T06:11:06.161Z,0.90
2023-05-10T06:12:07.778Z,0.75
2023-05-10T06:13:09.540Z,0.80
2023-05-10T06:14:11.258Z,0.80
2023-05-10T06:15:12.978Z,0.70
2023-05-10T06:16:14.713Z,1.10
2023-05-10T06:17:16.331Z,1.10
2023-05-10T06:18:18.338Z,1.13
2023-05-10T06:19:19.910Z,1.10
2023-05-10T06:20:21.531Z,0.90
2023-05-10T06:21:23.477Z,0.70
2023-05-10T06:22:25.146Z,0.77
2023-05-10T06:23:27.413Z,0.98
2023-05-10T06:24:29.146Z,1.00
2023-05-10T06:25:30.720Z,1.20
2023-05-10T06:26:32.383Z,0.73
2023-05-10T06:27:33.949Z,0.80
2023-05-10T06:28:35.558Z,1.20
2023-05-10T06:29:37.101Z,1.00
2023-05-10T06:30:38.689Z,0.82
2023-05-10T06:31:40.473Z,0.98
2023-05-10T06:32:42.513Z,0.77
2023-05-10T06:33:44.177Z,0.90
2023-05-10T06:34:45.858Z,1.10
2023-05-10T06:35:47.466Z,0.80
2023-05-10T06:36:49.071Z,0.70
2023-05-10T06:37:51.089Z,1.00
2023-05-10T06:38:52.872Z,1.30
2023-05-10T06:39:54.527Z,0.95
2023-05-10T06:40:56.133Z,1.00
2023-05-10T06:41:57.758Z,0.90
2023-05-10T06:43:07.191Z,1.08
2023-05-10T06:44:09.445Z,1.20
2023-05-10T06:45:11.641Z,0.80
2023-05-10T06:46:13.290Z,1.02
2023-05-10T06:47:14.896Z,1.00
2023-05-10T06:48:16.511Z,1.10
2023-05-10T06:49:18.292Z,1.00
2023-05-10T06:50:19.914Z,0.80
2023-05-10T06:51:22.296Z,0.95
2023-05-10T06:52:24.419Z,1.13
2023-05-10T06:53:26.059Z,0.80
2023-05-10T06:54:27.625Z,1.13
2023-05-10T06:55:30.144Z,1.02
2023-05-10T06:56:32.014Z,1.02
2023-05-10T06:57:33.602Z,0.90
2023-05-10T06:58:35.197Z,0.80
2023-05-10T06:59:37.491Z,0.90
2023-05-10T07:01:43.750Z,0.82
2023-05-10T07:02:45.605Z,0.90
2023-05-10T07:03:47.336Z,1.10
2023-05-10T07:04:49.254Z,0.77
2023-05-10T07:05:51.105Z,0.90
2023-05-10T07:06:52.711Z,0.63
2023-05-10T07:07:54.880Z,0.80
2023-05-10T07:08:56.536Z,1.00
2023-05-10T07:09:58.744Z,0.80
2023-05-10T07:11:02.378Z,0.70
2023-05-10T07:12:04.354Z,0.98
2023-05-10T07:13:06.172Z,1.10
2023-05-10T07:14:07.832Z,0.93
2023-05-10T07:15:10.311Z,0.90
2023-05-10T07:16:12.216Z,0.80
2023-05-10T07:17:13.856Z,0.88
2023-05-10T07:18:15.607Z,1.00
2023-05-10T07:19:17.179Z,0.85
2023-05-10T07:20:18.943Z,0.90
2023-05-10T07:21:20.581Z,0.88
2023-05-10T07:22:22.188Z,0.95
2023-05-10T07:23:23.848Z,1.02
2023-05-10T07:24:25.412Z,1.02
2023-05-10T07:25:27.154Z,0.90
2023-05-10T07:26:28.780Z,0.80
2023-05-10T07:27:30.520Z,0.85
2023-05-10T07:28:32.134Z,1.20
2023-05-10T07:29:33.922Z,1.00
2023-05-10T07:30:35.771Z,0.93
2023-05-10T07:31:37.482Z,0.90
2023-05-10T07:32:40.558Z,1.35
2023-05-10T07:33:42.684Z,0.98
2023-05-10T07:34:44.336Z,1.08
2023-05-10T07:35:45.988Z,1.17
2023-05-10T07:36:47.552Z,1.10
2023-05-10T07:37:49.161Z,1.20
2023-05-10T07:38:50.786Z,1.10
2023-05-10T07:39:52.337Z,1.25
2023-05-10T07:40:53.905Z,1.10
2023-05-10T07:41:56.055Z,0.93
2023-05-10T07:42:57.655Z,1.00
2023-05-10T07:43:59.267Z,1.05
2023-05-10T07:45:00.841Z,1.02
2023-05-10T07:46:02.629Z,0.82
2023-05-10T07:47:04.285Z,0.90
2023-05-10T07:48:06.242Z,0.80
2023-05-10T07:49:07.864Z,0.80
2023-05-10T07:50:09.637Z,0.73
2023-05-10T07:51:11.721Z,0.85
2023-05-10T07:52:13.309Z,0.95
2023-05-10T07:53:14.945Z,0.80
2023-05-10T07:54:16.896Z,1.02
2023-05-10T07:55:19.651Z,0.90
2023-05-10T07:56:24.254Z,0.73
2023-05-10T07:57:25.921Z,0.90
2023-05-10T07:58:27.847Z,0.82
2023-05-10T07:59:29.496Z,0.75
2023-05-10T08:00:31.148Z,0.85
2023-05-10T08:01:33.683Z,1.00
2023-05-10T08:02:36.596Z,0.90
2023-05-10T08:03:38.423Z,1.00
2023-05-10T08:04:40.098Z,1.05
2023-05-10T08:05:41.988Z,0.98
2023-05-10T08:06:43.559Z,1.00
2023-05-10T08:07:45.164Z,0.90
2023-05-10T08:08:50.389Z,1.10
2023-05-10T08:09:51.989Z,0.98
2023-05-10T08:10:53.574Z,0.90
2023-05-10T08:11:56.309Z,1.10
2023-05-10T08:12:59.672Z,1.13
2023-05-10T08:14:01.327Z,0.80
2023-05-10T08:15:03.188Z,1.10
2023-05-10T08:16:04.900Z,1.00
2023-05-10T08:17:06.819Z,0.90
2023-05-10T08:18:08.422Z,1.08
2023-05-10T08:19:10.128Z,1.13
2023-05-10T08:20:13.810Z,1.00
2023-05-10T08:21:16.158Z,1.08
2023-05-10T08:23:19.729Z,0.90
2023-05-10T08:24:21.439Z,0.80
2023-05-10T08:25:22.998Z,1.00
2023-05-10T08:26:24.660Z,0.82
2023-05-10T08:27:26.407Z,0.95
2023-05-10T08:28:28.232Z,0.90
2023-05-10T08:29:32.882Z,0.90
2023-05-10T08:30:40.396Z,0.90
2023-05-10T08:31:42.026Z,1.00
2023-05-10T08:32:43.645Z,1.00
2023-05-10T08:33:45.621Z,1.10
2023-05-10T08:34:47.286Z,1.10
2023-05-10T08:35:49.067Z,1.10
2023-05-10T08:36:50.774Z,1.10
2023-05-10T08:37:52.425Z,1.00
2023-05-10T08:38:54.769Z,1.00
2023-05-10T08:40:58.081Z,0.93
2023-05-10T08:42:01.647Z,1.13
2023-05-10T08:43:10.541Z,1.05
2023-05-10T08:44:12.254Z,1.20
2023-05-10T08:45:14.675Z,1.48
2023-05-10T08:46:18.896Z,1.45
2023-05-10T08:47:21.159Z,1.20
2023-05-10T08:48:24.464Z,1.00
2023-05-10T08:49:28.575Z,1.05
2023-05-10T08:50:30.799Z,1.13
2023-05-10T08:51:37.625Z,1.02
2023-05-10T08:52:42.664Z,1.10
2023-05-10T08:53:45.086Z,1.10
2023-05-10T08:55:48.234Z,0.80
2023-05-10T08:56:50.049Z,1.00
2023-05-10T08:57:51.710Z,1.20
2023-05-10T08:58:53.632Z,1.00
2023-05-10T08:59:55.296Z,1.10
2023-05-10T09:00:57.179Z,1.10
2023-05-10T09:01:59.629Z,1.00
2023-05-10T09:03:02.019Z,1.02
2023-05-10T09:04:05.308Z,1.10
2023-05-10T09:05:07.716Z,1.00
2023-05-10T09:06:09.386Z,0.90
2023-05-10T09:07:11.624Z,1.00
2023-05-10T09:08:14.019Z,0.90
2023-05-10T09:09:15.934Z,1.23
2023-05-10T09:10:17.814Z,1.30
2023-05-10T09:11:21.364Z,1.10
2023-05-10T09:12:23.505Z,1.13
2023-05-10T09:13:25.721Z,1.20
2023-05-10T09:14:27.790Z,1.20
2023-05-10T09:15:29.398Z,1.30
2023-05-10T09:16:31.042Z,1.00
2023-05-10T09:17:32.919Z,1.00
2023-05-10T09:18:34.574Z,1.10
2023-05-10T09:19:36.161Z,1.20
2023-05-10T09:20:37.749Z,1.35
2023-05-10T09:21:39.628Z,1.20
2023-05-10T09:22:41.736Z,1.20
2023-05-10T09:23:48.676Z,1.00
2023-05-10T09:25:07.737Z,1.00
2023-05-10T09:26:09.315Z,1.30
2023-05-10T09:27:10.891Z,1.25
2023-05-10T09:28:12.861Z,1.40
2023-05-10T09:29:16.037Z,1.30
2023-05-10T09:30:25.916Z,1.40
2023-05-10T09:31:48.162Z,1.17
2023-05-10T09:32:49.943Z,1.25
2023-05-10T09:33:52.075Z,1.20
2023-05-10T09:34:53.725Z,0.93
2023-05-10T09:35:55.330Z,1.20
2023-05-10T09:36:58.630Z,1.30
2023-05-10T09:38:03.285Z,1.20
2023-05-10T09:39:05.193Z,1.50
2023-05-10T09:40:08.506Z,1.20
2023-05-10T09:41:21.030Z,1.13
2023-05-10T09:42:23.829Z,1.00
2023-05-10T09:43:25.484Z,1.13
2023-05-10T09:44:27.439Z,1.00
2023-05-10T09:45:31.520Z,1.25
2023-05-10T09:46:37.080Z,1.30
2023-05-10T09:47:38.807Z,1.10
2023-05-10T09:48:48.556Z,1.30
2023-05-10T09:49:51.781Z,1.10
2023-05-10T09:50:59.300Z,0.90
2023-05-10T09:52:08.273Z,1.45
2023-05-10T09:53:09.873Z,1.10
2023-05-10T09:54:16.989Z,0.90
2023-05-10T09:55:20.987Z,1.00
2023-05-10T09:56:40.019Z,1.17
2023-05-10T09:57:43.089Z,1.20
2023-05-10T09:58:44.750Z,1.05
2023-05-10T09:59:46.613Z,1.10
2023-05-10T10:00:53.196Z,1.20
2023-05-10T10:01:58.232Z,0.95
2023-05-10T10:03:01.025Z,1.20
2023-05-10T10:04:08.344Z,0.93
2023-05-10T10:05:10.172Z,1.30
2023-05-10T10:06:26.466Z,1.15
2023-05-10T10:07:31.524Z,1.13
2023-05-10T10:08:33.127Z,1.00
2023-05-10T10:09:36.065Z,1.10
2023-05-10T10:10:37.939Z,1.15
2023-05-10T10:11:39.981Z,1.10
2023-05-10T10:12:42.424Z,1.27
2023-05-10T10:14:47.807Z,1.15
2023-05-10T10:15:52.247Z,1.13
2023-05-10T10:17:06.802Z,1.05
2023-05-10T10:18:14.062Z,1.13
2023-05-10T10:19:16.271Z,1.00
2023-05-10T10:20:19.672Z,1.13
2023-05-10T10:21:21.703Z,1.08
2023-05-10T10:22:23.265Z,1.00
2023-05-10T10:23:24.990Z,0.90
2023-05-10T10:24:26.555Z,1.00
2023-05-10T10:25:28.206Z,1.00
2023-05-10T10:26:29.945Z,1.00
2023-05-10T10:27:41.056Z,1.20
2023-05-10T10:29:04.231Z,1.20
2023-05-10T10:30:20.875Z,1.20
2023-05-10T10:31:32.404Z,1.30
2023-05-10T10:32:55.318Z,1.00
2023-05-10T10:34:02.844Z,1.20
2023-05-10T10:35:05.058Z,1.10
2023-05-10T10:36:07.033Z,0.88
2023-05-10T10:37:08.691Z,1.08
2023-05-10T10:38:10.386Z,1.00
2023-05-10T10:39:12.777Z,1.20
2023-05-10T10:41:33.705Z,1.33
2023-05-10T10:43:20.061Z,1.00
2023-05-10T10:44:27.559Z,1.00
2023-05-10T10:45:29.292Z,1.05
2023-05-10T10:46:30.936Z,0.98
2023-05-10T10:47:34.248Z,1.30
2023-05-10T10:48:36.821Z,1.00
2023-05-10T10:49:39.461Z,0.93
2023-05-10T10:50:47.809Z,1.00
2023-05-10T10:53:12.948Z,1.08
2023-05-10T10:54:29.146Z,1.20
2023-05-10T10:55:31.322Z,1.20
2023-05-10T10:56:33.648Z,1.10
2023-05-10T10:57:42.226Z,0.93
2023-05-10T10:58:52.141Z,1.00
2023-05-10T11:00:24.594Z,1.13
2023-05-10T11:01:33.913Z,1.00
2023-05-10T11:02:43.981Z,1.17
2023-05-10T11:04:03.833Z,1.08
2023-05-10T11:05:39.297Z,1.15
2023-05-10T11:06:41.294Z,1.02
2023-05-10T11:07:56.554Z,1.10
2023-05-10T11:08:58.329Z,0.98
2023-05-10T11:10:05.850Z,1.10
2023-05-10T11:11:08.390Z,1.00
2023-05-10T11:12:10.247Z,1.00
2023-05-10T11:13:12.197Z,1.10
2023-05-10T11:14:13.799Z,1.00
2023-05-10T11:15:18.610Z,1.08
2023-05-10T11:16:25.172Z,1.08
2023-05-10T11:17:28.798Z,1.00
2023-05-10T11:18:31.272Z,1.00
2023-05-10T11:19:32.891Z,0.85
2023-05-10T11:20:40.635Z,1.23
2023-05-10T11:22:14.781Z,1.10
2023-05-10T11:23:16.959Z,0.90
2023-05-10T11:24:21.020Z,1.25
2023-05-10T11:25:27.901Z,0.85
2023-05-10T11:26:35.020Z,1.10
2023-05-10T11:27:38.679Z,0.88
2023-05-10T11:28:44.392Z,1.17
2023-05-10T11:29:46.377Z,1.00
2023-05-10T11:30:48.258Z,1.10
2023-05-10T11:31:50.621Z,1.00
2023-05-10T11:33:55.758Z,0.90
2023-05-10T11:34:57.364Z,1.00
2023-05-10T11:35:59.042Z,1.20
2023-05-10T11:37:01.256Z,1.00
2023-05-10T11:38:02.882Z,1.10
2023-05-10T11:39:05.107Z,1.10
2023-05-10T11:41:13.172Z,1.10
2023-05-10T11:42:14.814Z,1.35
2023-05-10T11:43:16.413Z,1.10
2023-05-10T11:44:18.043Z,1.00
2023-05-10T11:45:19.743Z,0.95
2023-05-10T11:46:24.724Z,1.10
2023-05-10T11:47:26.581Z,1.10
2023-05-10T11:48:28.208Z,1.00
2023-05-10T11:49:29.868Z,1.05
2023-05-10T11:50:31.558Z,1.10
2023-05-10T11:51:37.388Z,1.15
2023-05-10T11:52:39.001Z,1.30
2023-05-10T11:53:40.647Z,1.10
2023-05-10T11:54:55.899Z,1.00
2023-05-10T11:56:04.184Z,0.95
2023-05-10T11:57:06.141Z,0.90
2023-05-10T11:58:07.747Z,1.30
2023-05-10T11:59:09.504Z,1.05
2023-05-10T12:00:11.943Z,1.27
2023-05-10T12:02:15.269Z,1.20
2023-05-10T12:03:17.232Z,1.10
2023-05-10T12:04:19.192Z,1.10
2023-05-10T12:05:21.026Z,1.25
2023-05-10T12:06:22.891Z,1.00
2023-05-10T12:07:24.538Z,1.20
2023-05-10T12:08:28.069Z,1.20
2023-05-10T12:09:40.079Z,1.02
2023-05-10T12:10:45.666Z,1.10
2023-05-10T12:11:47.269Z,0.80
2023-05-10T12:12:49.264Z,0.90
2023-05-10T12:13:51.274Z,1.10
2023-05-10T12:14:52.911Z,1.50
2023-05-10T12:15:54.533Z,1.27
2023-05-10T12:16:58.291Z,1.10
2023-05-10T12:18:00.816Z,1.20
2023-05-10T12:19:02.569Z,1.20
2023-05-10T12:20:24.888Z,1.20
2023-05-10T12:21:27.356Z,1.20
2023-05-10T12:22:29.133Z,0.77
2023-05-10T12:23:30.764Z,1.60
2023-05-10T12:24:36.490Z,1.20
2023-05-10T12:25:39.033Z,1.10
2023-05-10T12:26:40.785Z,1.15
2023-05-10T12:27:42.637Z,1.20
2023-05-10T12:28:44.300Z,1.40
2023-05-10T12:29:46.030Z,1.23
2023-05-10T12:30:47.696Z,1.10
2023-05-10T12:32:00.486Z,1.20
2023-05-10T12:33:04.543Z,1.02
2023-05-10T12:34:06.192Z,1.02
2023-05-10T12:35:08.753Z,1.00
2023-05-10T12:36:14.838Z,1.10
2023-05-10T12:37:16.448Z,1.10
2023-05-10T12:38:34.420Z,1.40
2023-05-10T12:39:43.610Z,1.05
2023-05-10T12:40:45.395Z,1.20
2023-05-10T12:41:47.049Z,1.10
2023-05-10T12:42:49.753Z,1.10
2023-05-10T12:43:52.376Z,1.10
2023-05-10T12:44:57.755Z,1.10
2023-05-10T12:45:59.730Z,1.10
2023-05-10T12:47:01.322Z,1.02
2023-05-10T12:48:03.028Z,1.20
2023-05-10T12:49:09.118Z,0.80
2023-05-10T12:50:12.069Z,1.00
2023-05-10T12:52:18.321Z,0.95
2023-05-10T12:53:20.003Z,0.93
2023-05-10T12:54:21.580Z,1.00
2023-05-10T12:55:23.278Z,0.90
2023-05-10T12:56:25.036Z,0.90
2023-05-10T12:57:26.664Z,0.90
2023-05-10T12:58:35.501Z,0.70
2023-05-10T12:59:38.308Z,0.82
2023-05-10T13:01:41.658Z,0.60
2023-05-10T13:02:43.303Z,0.77
2023-05-10T13:03:45.044Z,0.82
2023-05-10T13:04:48.820Z,0.68
2023-05-10T13:05:51.899Z,0.60
2023-05-10T13:06:53.596Z,0.80
2023-05-10T13:07:55.375Z,0.80
2023-05-10T13:08:58.549Z,0.70
2023-05-10T13:10:00.413Z,0.80
2023-05-10T13:11:03.000Z,0.73
2023-05-10T13:12:04.672Z,0.70
2023-05-10T13:13:06.362Z,0.77
2023-05-10T13:14:07.991Z,0.80
2023-05-10T13:15:10.002Z,0.80
2023-05-10T13:16:11.598Z,0.90
2023-05-10T13:17:13.225Z,0.70
2023-05-10T13:18:14.990Z,0.73
2023-05-10T13:19:16.991Z,0.90
2023-05-10T13:20:19.105Z,0.98
2023-05-10T13:21:21.005Z,0.80
2023-05-10T13:22:32.563Z,0.90
2023-05-10T13:23:41.179Z,0.70
2023-05-10T13:24:42.776Z,0.90
2023-05-10T13:25:44.361Z,0.80
2023-05-10T13:26:45.952Z,0.90
2023-05-10T13:27:47.524Z,0.90
2023-05-10T13:28:49.860Z,1.00
2023-05-10T13:29:51.579Z,1.15
2023-05-10T13:30:53.180Z,1.20
2023-05-10T13:31:55.014Z,1.00
2023-05-10T13:32:56.709Z,0.90
2023-05-10T13:33:58.333Z,0.82
2023-05-10T13:34:59.955Z,0.90
2023-05-10T13:36:01.664Z,0.90
2023-05-10T13:37:03.298Z,0.85
2023-05-10T13:38:04.936Z,1.00
2023-05-10T13:39:06.627Z,0.95
2023-05-10T13:40:08.793Z,1.10
2023-05-10T13:41:11.162Z,0.98
2023-05-10T13:42:12.885Z,0.90
2023-05-10T13:43:14.461Z,1.00
2023-05-10T13:44:16.564Z,1.00
2023-05-10T13:45:18.466Z,0.77
2023-05-10T13:46:20.625Z,1.20
2023-05-10T13:47:23.393Z,0.98
2023-05-10T13:48:25.032Z,1.10
2023-05-10T13:49:27.814Z,1.00
2023-05-10T13:50:29.526Z,1.13
2023-05-10T13:51:32.641Z,1.00
2023-05-10T13:52:34.373Z,1.15
2023-05-10T13:53:36.015Z,1.20
2023-05-10T13:54:39.016Z,1.00
2023-05-10T13:55:40.662Z,1.30
2023-05-10T13:56:43.521Z,1.10
2023-05-10T13:57:45.203Z,1.10
2023-05-10T13:58:47.440Z,1.15
2023-05-10T13:59:49.135Z,1.40
2023-05-10T14:00:50.779Z,1.00
2023-05-10T14:01:52.569Z,1.10
2023-05-10T14:02:54.861Z,1.30
2023-05-10T14:03:56.726Z,1.33
2023-05-10T14:04:58.422Z,1.40
2023-05-10T14:06:00.148Z,1.40
2023-05-10T14:07:01.914Z,1.80
2023-05-10T14:08:03.774Z,1.40
2023-05-10T14:09:05.471Z,1.65
2023-05-10T14:10:07.807Z,1.40
2023-05-10T14:11:09.692Z,1.60
2023-05-10T14:12:11.383Z,1.20
2023-05-10T14:13:13.277Z,1.30
2023-05-10T14:14:15.127Z,1.15
2023-05-10T14:15:17.480Z,1.00
2023-05-10T14:16:20.320Z,0.90
2023-05-10T14:17:23.206Z,0.75
2023-05-10T14:18:24.995Z,0.90
2023-05-10T14:19:27.966Z,1.08
2023-05-10T14:20:29.980Z,0.98
2023-05-10T14:21:31.780Z,0.90
2023-05-10T14:22:33.528Z,1.65
2023-05-10T14:23:35.306Z,1.05
2023-05-10T14:24:37.274Z,1.10
2023-05-10T14:25:40.969Z,1.42
2023-05-10T14:26:42.591Z,0.90
2023-05-10T14:27:44.202Z,0.90
2023-05-10T14:28:45.965Z,1.17